createdAt,value
2022-08-29T00:01:05.572Z,94.40
2022-08-29T00:03:32.787Z,94.40
2022-08-29T00:05:59.588Z,94.30
2022-08-29T00:08:27.144Z,94.20
2022-08-29T00:10:54.032Z,94.10
2022-08-29T00:13:21.991Z,94.00
2022-08-29T00:15:50.464Z,93.90
2022-08-29T00:18:19.564Z,93.90
2022-08-29T00:20:47.042Z,93.80
2022-08-29T00:23:14.129Z,93.70
2022-08-29T00:25:40.945Z,93.60
2022-08-29T00:28:07.908Z,93.50
2022-08-29T00:30:35.916Z,93.40
2022-08-29T00:33:03.515Z,93.30
2022-08-29T00:35:34.425Z,93.00
2022-08-29T00:38:02.338Z,93.00
2022-08-29T00:40:56.461Z,92.90
2022-08-29T00:43:27.178Z,92.90
2022-08-29T00:46:09.162Z,92.80
2022-08-29T00:48:39.124Z,92.70
2022-08-29T00:51:08.905Z,92.70
2022-08-29T00:53:39.685Z,92.70
2022-08-29T00:56:08.431Z,92.70
2022-08-29T00:58:47.589Z,92.70
2022-08-29T01:01:14.499Z,92.60
2022-08-29T01:03:43.093Z,92.50
2022-08-29T01:06:11.297Z,92.50
2022-08-29T01:08:38.117Z,92.50
2022-08-29T01:11:24.185Z,92.50
2022-08-29T01:13:52.874Z,92.50
2022-08-29T01:16:20.885Z,92.40
2022-08-29T01:18:51.143Z,92.30
2022-08-29T01:21:36.249Z,92.30
2022-08-29T01:24:15.238Z,92.10
2022-08-29T01:26:44.508Z,92.00
2022-08-29T01:29:11.416Z,91.90
2022-08-29T01:31:56.973Z,91.90
2022-08-29T01:34:32.406Z,91.90
2022-08-29T01:37:01.921Z,91.90
2022-08-29T01:39:31.995Z,91.80
2022-08-29T01:42:03.909Z,91.80
2022-08-29T01:44:32.549Z,91.70
2022-08-29T01:47:02.782Z,91.60
2022-08-29T01:49:34.852Z,91.50
2022-08-29T01:52:05.721Z,91.40
2022-08-29T01:54:32.848Z,91.30
2022-08-29T01:57:01.439Z,91.30
2022-08-29T01:59:29.866Z,91.20
2022-08-29T02:02:02.302Z,91.20
2022-08-29T02:04:29.287Z,91.10
2022-08-29T02:06:56.246Z,91.00
2022-08-29T02:09:24.308Z,91.00
2022-08-29T02:11:52.460Z,90.90
2022-08-29T02:14:19.918Z,91.00
2022-08-29T02:16:47.804Z,90.90
2022-08-29T02:19:15.526Z,91.00
2022-08-29T02:21:42.799Z,90.90
2022-08-29T02:24:24.288Z,91.20
2022-08-29T02:26:53.029Z,91.20
2022-08-29T02:29:19.970Z,91.30
2022-08-29T02:31:46.990Z,91.20
2022-08-29T02:34:14.140Z,91.30
2022-08-29T02:36:41.537Z,91.40
2022-08-29T02:39:08.945Z,91.50
2022-08-29T02:41:36.183Z,91.60
2022-08-29T02:44:05.010Z,91.70
2022-08-29T02:46:32.285Z,91.70
2022-08-29T02:49:00.904Z,91.80
2022-08-29T02:51:32.166Z,92.00
2022-08-29T02:53:59.991Z,92.10
2022-08-29T02:56:27.470Z,92.30
2022-08-29T02:58:54.297Z,92.40
2022-08-29T03:01:23.047Z,92.40
2022-08-29T03:03:50.810Z,92.60
2022-08-29T03:06:19.049Z,92.80
2022-08-29T03:08:46.185Z,93.00
2022-08-29T03:11:13.980Z,93.10
2022-08-29T03:13:40.954Z,93.20
2022-08-29T03:16:08.983Z,93.30
2022-08-29T03:18:36.168Z,93.70
2022-08-29T03:21:02.963Z,93.80
2022-08-29T03:23:29.803Z,93.90
2022-08-29T03:25:56.678Z,94.00
2022-08-29T03:28:23.471Z,94.00
2022-08-29T03:30:50.372Z,94.10
2022-08-29T03:33:17.742Z,94.20
2022-08-29T03:35:44.577Z,94.30
2022-08-29T03:38:11.505Z,94.40
2022-08-29T03:40:41.432Z,94.50
2022-08-29T03:43:09.471Z,94.40
2022-08-29T03:45:36.617Z,94.40
2022-08-29T03:48:03.963Z,94.30
2022-08-29T03:50:30.897Z,94.40
2022-08-29T03:52:57.734Z,94.40
2022-08-29T03:55:24.568Z,94.50
2022-08-29T03:57:51.430Z,94.60
2022-08-29T04:00:19.789Z,94.60
2022-08-29T04:02:47.787Z,94.70
2022-08-29T04:05:18.118Z,94.80
2022-08-29T04:07:53.935Z,94.80
2022-08-29T04:10:30.850Z,94.90
2022-08-29T04:12:58.523Z,94.90
2022-08-29T04:15:26.582Z,95.00
2022-08-29T04:17:55.318Z,95.00
2022-08-29T04:20:25.678Z,95.00
2022-08-29T04:22:54.575Z,95.10
2022-08-29T04:25:23.016Z,95.10
2022-08-29T04:27:49.866Z,95.20
2022-08-29T04:30:19.075Z,95.20
2022-08-29T04:32:45.833Z,95.30
2022-08-29T04:35:14.329Z,95.40
2022-08-29T04:37:42.207Z,95.50
2022-08-29T04:40:11.072Z,95.50
2022-08-29T04:42:38.625Z,95.60
2022-08-29T04:45:07.191Z,95.70
2022-08-29T04:47:37.365Z,95.70
2022-08-29T04:50:05.144Z,95.70
2022-08-29T04:52:32.048Z,95.70
2022-08-29T04:55:00.105Z,95.70
2022-08-29T04:57:26.929Z,95.70
2022-08-29T04:59:58.860Z,95.70
2022-08-29T05:02:27.697Z,95.70
2022-08-29T05:04:56.610Z,95.70
2022-08-29T05:07:25.791Z,95.70
2022-08-29T05:09:58.750Z,95.70
2022-08-29T05:12:27.827Z,95.70
2022-08-29T05:14:54.756Z,95.70
2022-08-29T05:17:22.308Z,95.70
2022-08-29T05:19:49.457Z,95.70
2022-08-29T05:22:17.232Z,95.70
2022-08-29T05:24:44.434Z,95.70
2022-08-29T05:27:17.161Z,95.70
2022-08-29T05:29:45.749Z,95.70
2022-08-29T05:32:18.740Z,95.70
2022-08-29T05:34:46.579Z,95.70
2022-08-29T05:37:16.582Z,95.70
2022-08-29T05:39:43.591Z,95.70
2022-08-29T05:42:11.958Z,95.70
2022-08-29T05:44:39.483Z,95.70
2022-08-29T05:47:11.008Z,95.70
2022-08-29T05:49:43.452Z,95.70
2022-08-29T05:52:11.317Z,95.70
2022-08-29T05:54:41.361Z,95.70
2022-08-29T05:57:09.705Z,95.70
2022-08-29T05:59:37.426Z,95.70
2022-08-29T06:02:05.967Z,95.70
2022-08-29T06:04:32.794Z,95.70
2022-08-29T06:06:59.774Z,95.70
2022-08-29T06:09:26.899Z,95.70
2022-08-29T06:11:53.742Z,95.70
2022-08-29T06:14:20.822Z,95.70
2022-08-29T06:16:47.907Z,95.70
2022-08-29T06:19:15.005Z,95.70
2022-08-29T06:21:42.127Z,95.70
2022-08-29T06:24:09.443Z,95.70
2022-08-29T06:26:36.487Z,95.70
2022-08-29T06:29:06.576Z,95.70
2022-08-29T06:31:33.739Z,95.70
2022-08-29T06:34:05.002Z,95.70
2022-08-29T06:36:32.748Z,95.70
2022-08-29T06:39:04.026Z,95.70
2022-08-29T06:41:30.976Z,95.70
2022-08-29T06:43:57.912Z,95.70
2022-08-29T06:46:27.434Z,95.70
2022-08-29T06:48:55.233Z,95.70
2022-08-29T06:51:22.559Z,95.70
2022-08-29T06:53:52.000Z,95.70
2022-08-29T06:56:19.288Z,95.70
2022-08-29T06:58:47.566Z,95.70
2022-08-29T07:01:17.314Z,95.70
2022-08-29T07:03:45.805Z,95.70
2022-08-29T07:06:13.231Z,95.70
2022-08-29T07:08:46.737Z,95.70
2022-08-29T07:11:27.140Z,95.70
2022-08-29T07:13:57.078Z,95.70
2022-08-29T07:16:24.036Z,95.70
2022-08-29T07:18:53.440Z,95.70
2022-08-29T07:21:21.979Z,95.70
2022-08-29T07:23:50.570Z,95.70
2022-08-29T07:26:21.361Z,95.70
2022-08-29T07:28:50.246Z,95.70
2022-08-29T07:31:17.686Z,95.70
2022-08-29T07:33:44.754Z,95.70
2022-08-29T07:36:12.259Z,95.70
2022-08-29T07:38:39.519Z,95.70
2022-08-29T07:41:15.978Z,95.70
2022-08-29T07:43:43.637Z,95.70
2022-08-29T07:46:13.361Z,95.70
2022-08-29T07:48:41.000Z,95.70
2022-08-29T07:51:10.822Z,95.70
2022-08-29T07:53:38.138Z,95.70
2022-08-29T07:56:07.554Z,95.70
2022-08-29T07:58:34.511Z,95.70
2022-08-29T08:01:01.446Z,95.70
2022-08-29T08:03:28.717Z,95.70
2022-08-29T08:05:55.755Z,95.70
2022-08-29T08:08:22.681Z,95.70
2022-08-29T08:10:52.152Z,95.70
2022-08-29T08:13:19.350Z,95.70
2022-08-29T08:15:46.307Z,95.70
2022-08-29T08:18:16.444Z,95.70
2022-08-29T08:20:48.477Z,95.70
2022-08-29T08:23:16.927Z,95.70
2022-08-29T08:25:44.556Z,95.70
2022-08-29T08:28:15.189Z,95.70
2022-08-29T08:30:42.630Z,95.70
2022-08-29T08:33:10.074Z,95.70
2022-08-29T08:35:41.963Z,95.70
2022-08-29T08:38:09.379Z,95.70
2022-08-29T08:40:45.375Z,95.70
2022-08-29T08:43:15.628Z,95.70
2022-08-29T08:45:53.880Z,95.70
2022-08-29T08:48:26.046Z,95.70
2022-08-29T08:51:15.366Z,95.70
2022-08-29T08:53:49.263Z,95.20
2022-08-29T08:56:37.690Z,95.00
2022-08-29T08:59:16.258Z,94.70
2022-08-29T09:01:56.375Z,94.60
2022-08-29T09:04:37.316Z,94.50
2022-08-29T09:07:16.229Z,94.10
2022-08-29T09:10:04.821Z,94.10
2022-08-29T09:12:56.800Z,93.80
2022-08-29T09:15:32.843Z,93.60
2022-08-29T09:18:05.488Z,93.90
2022-08-29T09:20:36.743Z,93.70
2022-08-29T09:23:25.751Z,93.60
2022-08-29T09:25:52.627Z,93.70
2022-08-29T09:28:20.051Z,94.00
2022-08-29T09:31:24.421Z,94.20
2022-08-29T09:33:58.206Z,95.00
2022-08-29T09:36:51.898Z,95.10
2022-08-29T09:39:31.268Z,95.20
2022-08-29T09:42:12.765Z,95.10
2022-08-29T09:44:41.457Z,95.10
2022-08-29T09:47:17.195Z,95.20
2022-08-29T09:50:04.077Z,95.40
2022-08-29T09:52:32.785Z,95.70
2022-08-29T09:55:36.549Z,95.70
2022-08-29T09:58:16.629Z,95.70
2022-08-29T10:00:58.498Z,95.70
2022-08-29T10:03:26.365Z,95.60
2022-08-29T10:06:15.817Z,95.70
2022-08-29T10:08:54.541Z,95.70
2022-08-29T10:11:28.330Z,95.60
2022-08-29T10:13:58.975Z,95.40
2022-08-29T10:16:56.888Z,95.50
2022-08-29T10:19:32.975Z,95.70
2022-08-29T10:22:17.914Z,95.70
2022-08-29T10:25:16.512Z,95.70
2022-08-29T10:27:58.554Z,95.70
2022-08-29T10:30:44.689Z,95.70
2022-08-29T10:33:36.143Z,95.70
2022-08-29T10:36:23.947Z,95.70
2022-08-29T10:39:12.362Z,95.50
2022-08-29T10:41:46.006Z,95.60
2022-08-29T10:44:28.400Z,95.70
2022-08-29T10:47:04.296Z,95.70
2022-08-29T10:49:34.007Z,95.70
2022-08-29T10:52:29.097Z,95.70
2022-08-29T10:55:33.163Z,95.70
2022-08-29T10:58:22.997Z,95.70
2022-08-29T11:00:55.852Z,95.10
2022-08-29T11:03:40.328Z,95.30
2022-08-29T11:06:59.856Z,94.40
2022-08-29T11:09:43.797Z,94.30
2022-08-29T11:12:45.085Z,93.90
2022-08-29T11:15:39.161Z,93.90
2022-08-29T11:18:24.375Z,93.90
2022-08-29T11:20:56.626Z,94.40
2022-08-29T11:23:58.192Z,94.40
2022-08-29T11:26:44.662Z,94.40
2022-08-29T11:29:34.748Z,94.70
2022-08-29T11:32:01.523Z,95.00
2022-08-29T11:34:46.484Z,95.10
2022-08-29T11:37:25.643Z,95.40
2022-08-29T11:39:52.424Z,95.10
2022-08-29T11:45:13.113Z,94.20
2022-08-29T11:47:47.228Z,93.90
2022-08-29T11:50:17.119Z,93.70
2022-08-29T11:53:03.273Z,94.00
2022-08-29T11:55:39.480Z,93.10
2022-08-29T11:58:27.980Z,93.40
2022-08-29T12:00:57.539Z,94.10
2022-08-29T12:03:34.481Z,94.40
2022-08-29T12:06:26.375Z,94.50
2022-08-29T12:09:13.669Z,94.90
2022-08-29T12:12:02.617Z,94.70
2022-08-29T12:14:37.697Z,95.00
2022-08-29T12:17:08.145Z,95.20
2022-08-29T12:19:53.975Z,95.00
2022-08-29T12:22:51.833Z,94.70
2022-08-29T12:25:28.116Z,94.90
2022-08-29T12:28:01.271Z,95.00
2022-08-29T12:30:31.611Z,95.50
2022-08-29T12:33:36.198Z,95.60
2022-08-29T12:36:52.507Z,95.50
2022-08-29T12:39:53.022Z,94.20
2022-08-29T12:42:38.697Z,94.10
2022-08-29T12:45:12.827Z,93.90
2022-08-29T12:47:46.086Z,93.60
2022-08-29T12:50:30.426Z,93.80
2022-08-29T12:53:02.599Z,94.00
2022-08-29T12:55:35.538Z,93.90
2022-08-29T12:58:02.712Z,93.90
2022-08-29T13:00:31.886Z,94.00
2022-08-29T13:03:15.027Z,93.80
2022-08-29T13:05:43.810Z,93.90
2022-08-29T13:08:14.438Z,93.40
2022-08-29T13:10:53.467Z,93.40
2022-08-29T13:13:22.498Z,93.40
2022-08-29T13:15:54.106Z,92.80
2022-08-29T13:18:22.028Z,92.70
2022-08-29T13:21:14.003Z,92.80
2022-08-29T13:23:45.977Z,92.90
2022-08-29T13:26:14.220Z,92.70
2022-08-29T13:28:53.349Z,92.20
2022-08-29T13:31:21.421Z,92.20
2022-08-29T13:33:51.349Z,92.60
2022-08-29T13:36:27.414Z,92.70
2022-08-29T13:39:21.829Z,93.00
2022-08-29T13:41:51.525Z,93.10
2022-08-29T13:44:26.205Z,93.30
2022-08-29T13:46:54.488Z,93.40
2022-08-29T13:49:25.983Z,93.60
2022-08-29T13:51:52.972Z,94.00
2022-08-29T13:54:20.420Z,94.40
2022-08-29T13:56:49.109Z,94.40
2022-08-29T13:59:25.983Z,94.10
2022-08-29T14:02:10.455Z,93.90
2022-08-29T14:04:40.341Z,93.40
2022-08-29T14:07:09.464Z,93.50
2022-08-29T14:09:44.488Z,93.60
2022-08-29T14:12:12.688Z,93.60
2022-08-29T14:14:40.221Z,93.60
2022-08-29T14:17:07.319Z,92.80
2022-08-29T14:19:35.263Z,92.80
2022-08-29T14:22:02.813Z,92.20
2022-08-29T14:24:30.984Z,91.90
2022-08-29T14:27:01.576Z,91.70
2022-08-29T14:29:30.814Z,91.80
2022-08-29T14:31:58.762Z,91.30
2022-08-29T14:34:30.759Z,91.00
2022-08-29T14:36:59.703Z,90.90
2022-08-29T14:39:26.702Z,90.80
2022-08-29T14:41:54.734Z,90.40
2022-08-29T14:44:22.276Z,90.40
2022-08-29T14:46:49.861Z,90.80
2022-08-29T14:49:17.253Z,90.60
2022-08-29T14:51:46.905Z,90.90
2022-08-29T14:54:13.790Z,90.70
2022-08-29T14:56:48.686Z,90.90
2022-08-29T14:59:17.083Z,90.80
2022-08-29T15:01:44.010Z,90.70
2022-08-29T15:04:11.048Z,90.70
2022-08-29T15:06:38.505Z,91.10
2022-08-29T15:09:05.525Z,91.40
2022-08-29T15:11:33.424Z,91.60
2022-08-29T15:14:04.439Z,91.40
2022-08-29T15:16:32.231Z,91.20
2022-08-29T15:19:53.275Z,91.50
2022-08-29T15:21:46.485Z,91.30
2022-08-29T15:24:13.301Z,91.80
2022-08-29T15:26:40.205Z,91.30
2022-08-29T15:29:08.896Z,91.30
2022-08-29T15:31:35.876Z,91.50
2022-08-29T15:34:02.759Z,91.20
2022-08-29T15:36:29.715Z,90.80
2022-08-29T15:38:56.542Z,91.00
2022-08-29T15:41:23.368Z,91.10
2022-08-29T15:43:50.226Z,91.30
2022-08-29T15:46:17.119Z,90.90
2022-08-29T15:48:45.645Z,90.60
2022-08-29T15:51:13.741Z,90.30
2022-08-29T15:53:40.699Z,90.00
2022-08-29T15:56:07.985Z,90.10
2022-08-29T15:58:34.912Z,90.40
2022-08-29T16:01:02.930Z,90.10
2022-08-29T16:03:29.783Z,90.20
2022-08-29T16:05:57.153Z,90.80
2022-08-29T16:08:29.623Z,90.00
2022-08-29T16:10:56.950Z,89.70
2022-08-29T16:13:23.824Z,89.70
2022-08-29T16:15:51.090Z,89.70
2022-08-29T16:18:18.638Z,89.70
2022-08-29T16:20:45.426Z,89.00
2022-08-29T16:23:12.305Z,89.30
2022-08-29T16:25:39.626Z,89.30
2022-08-29T16:28:06.483Z,89.80
2022-08-29T16:30:33.624Z,89.10
2022-08-29T16:33:01.569Z,89.10
2022-08-29T16:35:28.485Z,89.20
2022-08-29T16:38:02.612Z,89.10
2022-08-29T16:40:30.494Z,89.30
2022-08-29T16:42:57.444Z,89.10
2022-08-29T16:45:24.313Z,88.60
2022-08-29T16:47:55.296Z,88.10
2022-08-29T16:50:24.688Z,88.10
2022-08-29T16:52:51.666Z,88.40
2022-08-29T16:55:18.490Z,88.20
2022-08-29T16:58:05.256Z,88.50
2022-08-29T17:00:32.303Z,88.60
2022-08-29T17:02:59.679Z,89.10
2022-08-29T17:05:27.190Z,88.70
2022-08-29T17:07:53.941Z,87.90
2022-08-29T17:10:20.729Z,88.20
2022-08-29T17:12:47.485Z,87.90
2022-08-29T17:15:14.305Z,88.10
2022-08-29T17:17:41.142Z,88.40
2022-08-29T17:20:08.517Z,88.60
2022-08-29T17:22:35.548Z,88.40
2022-08-29T17:25:02.374Z,88.40
2022-08-29T17:27:30.197Z,88.60
2022-08-29T17:29:57.240Z,88.70
2022-08-29T17:32:24.150Z,88.80
2022-08-29T17:34:51.105Z,88.40
2022-08-29T17:37:17.897Z,88.40
2022-08-29T17:39:47.838Z,88.40
2022-08-29T17:42:14.699Z,88.30
2022-08-29T17:44:41.812Z,88.20
2022-08-29T17:47:08.624Z,88.30
2022-08-29T17:49:35.407Z,88.50
2022-08-29T17:52:02.541Z,88.70
2022-08-29T17:54:29.478Z,89.20
2022-08-29T17:56:58.786Z,89.50
2022-08-29T17:59:28.411Z,89.90
2022-08-29T18:01:55.633Z,90.00
2022-08-29T18:04:22.775Z,90.30
2022-08-29T18:06:51.785Z,90.60
2022-08-29T18:09:19.588Z,90.90
2022-08-29T18:11:47.656Z,91.20
2022-08-29T18:14:14.675Z,91.60
2022-08-29T18:16:41.738Z,91.70
2022-08-29T18:19:08.942Z,91.90
2022-08-29T18:21:35.887Z,92.00
2022-08-29T18:24:03.408Z,92.20
2022-08-29T18:26:30.281Z,92.50
2022-08-29T18:28:57.603Z,92.70
2022-08-29T18:31:24.500Z,92.80
2022-08-29T18:34:06.693Z,92.90
2022-08-29T18:36:36.010Z,92.90
2022-08-29T18:42:36.862Z,93.30
2022-08-29T18:45:07.867Z,93.60
2022-08-29T18:47:35.365Z,93.80
2022-08-29T18:50:24.939Z,93.90
2022-08-29T18:52:53.162Z,94.20
2022-08-29T18:55:20.560Z,94.20
2022-08-29T18:57:48.343Z,94.30
2022-08-29T19:00:16.395Z,94.40
2022-08-29T19:02:43.482Z,94.50
2022-08-29T19:05:13.143Z,94.80
2022-08-29T19:07:40.011Z,94.90
2022-08-29T19:10:11.122Z,95.00
2022-08-29T19:12:38.252Z,95.00
2022-08-29T19:15:10.164Z,95.00
2022-08-29T19:17:38.293Z,95.20
2022-08-29T19:20:27.659Z,95.50
2022-08-29T19:22:54.746Z,95.70
2022-08-29T19:25:21.991Z,95.70
2022-08-29T19:27:48.887Z,95.70
2022-08-29T19:30:17.700Z,95.70
2022-08-29T19:32:44.550Z,95.70
2022-08-29T19:35:12.899Z,95.70
2022-08-29T19:37:43.895Z,95.70
2022-08-29T19:40:12.579Z,95.70
2022-08-29T19:42:39.501Z,95.70
2022-08-29T19:45:10.851Z,95.70
2022-08-29T19:47:38.136Z,95.70
2022-08-29T19:50:07.530Z,95.70
2022-08-29T19:52:34.746Z,95.70
2022-08-29T19:55:09.029Z,95.70
2022-08-29T19:57:36.339Z,95.70
2022-08-29T20:00:13.952Z,95.70
2022-08-29T20:02:43.402Z,95.70
2022-08-29T20:05:13.786Z,95.70
2022-08-29T20:07:41.826Z,95.70
2022-08-29T20:10:21.118Z,95.70
2022-08-29T20:12:54.377Z,95.70
2022-08-29T20:15:22.836Z,95.70
2022-08-29T20:18:06.067Z,95.70
2022-08-29T20:20:35.938Z,95.70
2022-08-29T20:23:04.444Z,95.70
2022-08-29T20:25:32.474Z,95.70
2022-08-29T20:27:59.426Z,95.70
2022-08-29T20:30:28.925Z,95.70
2022-08-29T20:32:56.090Z,95.70
2022-08-29T20:35:42.688Z,95.70
2022-08-29T20:38:10.716Z,95.70
2022-08-29T20:40:39.616Z,95.70
2022-08-29T20:43:07.111Z,95.70
2022-08-29T20:45:34.528Z,95.70
2022-08-29T20:48:02.077Z,95.70
2022-08-29T20:52:55.757Z,95.70
2022-08-29T20:55:23.146Z,95.70
2022-08-29T20:57:50.327Z,95.70
2022-08-29T21:00:19.772Z,95.70
2022-08-29T21:03:06.427Z,95.70
2022-08-29T21:05:59.760Z,95.70
2022-08-29T21:08:26.728Z,95.70
2022-08-29T21:10:55.195Z,95.70
2022-08-29T21:13:22.645Z,95.70
2022-08-29T21:15:50.345Z,95.70
2022-08-29T21:18:19.042Z,95.70
2022-08-29T21:20:53.834Z,95.70
2022-08-29T21:23:22.840Z,95.70
2022-08-29T21:25:58.043Z,95.70
2022-08-29T21:28:25.526Z,95.70
2022-08-29T21:30:53.196Z,95.70
2022-08-29T21:33:20.817Z,95.70
2022-08-29T21:35:50.068Z,95.70
2022-08-29T21:38:17.698Z,95.70
2022-08-29T21:40:51.157Z,95.70
2022-08-29T21:43:19.805Z,95.70
2022-08-29T21:45:47.445Z,95.70
2022-08-29T21:48:14.390Z,95.70
2022-08-29T21:50:41.465Z,95.70
2022-08-29T21:53:10.963Z,95.70
2022-08-29T21:55:37.798Z,95.70
2022-08-29T21:58:04.696Z,95.70
2022-08-29T22:00:35.352Z,95.70
2022-08-29T22:03:05.364Z,95.70
2022-08-29T22:05:33.711Z,95.70
2022-08-29T22:08:03.138Z,95.70
2022-08-29T22:10:33.215Z,95.70
2022-08-29T22:13:00.668Z,95.70
2022-08-29T22:15:46.040Z,95.70
2022-08-29T22:18:15.951Z,95.70
2022-08-29T22:20:44.055Z,95.70
2022-08-29T22:23:11.059Z,95.70
2022-08-29T22:25:37.911Z,95.70
2022-08-29T22:28:05.112Z,95.70
2022-08-29T22:30:33.106Z,95.70
2022-08-29T22:33:01.154Z,95.70
2022-08-29T22:35:28.831Z,95.70
2022-08-29T22:37:55.744Z,95.70
2022-08-29T22:40:23.030Z,95.70
2022-08-29T22:42:49.983Z,95.70
2022-08-29T22:45:18.056Z,95.70
2022-08-29T22:47:46.654Z,95.70
2022-08-29T22:50:16.750Z,95.70
2022-08-29T22:52:43.690Z,95.70
2022-08-29T22:55:13.504Z,95.70
2022-08-29T22:57:42.687Z,95.70
2022-08-29T23:00:11.105Z,95.70
2022-08-29T23:02:38.553Z,95.70
2022-08-29T23:05:09.577Z,95.70
2022-08-29T23:07:37.033Z,95.70
2022-08-29T23:10:06.314Z,95.70
2022-08-29T23:12:36.045Z,95.70
2022-08-29T23:15:09.362Z,95.70
2022-08-29T23:17:36.541Z,95.70
2022-08-29T23:20:05.213Z,95.70
2022-08-29T23:22:32.009Z,95.70
2022-08-29T23:24:59.244Z,95.70
2022-08-29T23:27:30.588Z,95.70
2022-08-29T23:29:58.572Z,95.70
2022-08-29T23:32:25.747Z,95.70
2022-08-29T23:34:52.723Z,95.70
2022-08-29T23:37:19.579Z,95.70
2022-08-29T23:39:46.756Z,95.70
2022-08-29T23:42:13.590Z,95.70
2022-08-29T23:44:40.440Z,95.70
2022-08-29T23:47:08.562Z,95.70
2022-08-29T23:49:35.690Z,95.70
2022-08-29T23:52:03.422Z,95.70
2022-08-29T23:54:31.431Z,95.70
2022-08-29T23:56:58.288Z,95.70
2022-08-29T23:59:43.669Z,95.70
